Columbia — WDD6400 — position and weather

sailwx.info

Track history (hours):
 
Tides and Currents Weather Stations Pressure Air Temp Water Temp Dewpoint Dewpoint Depression Visibility Wind Speed Wind Dir Waves Ship Positions

Columbia

Owner: OSG Ship Management Inc., Tampa, FL. More information available from US FCC via Universal Licensing System and Coast Guard Vessel Documentation Center.

Last reported at 2014-Oct-29 22:17 UTC. Time now 2014-Oct-31 13:35 UTC.
Position N 27°36' W 083°01'.

Length 194 m; draft 9.5 m.

Type: Towing. MMSI: 367172440.

Date/timePositionNaut miles runAvg speedWind from/ knotsBaromVisibWave heightAir tempDewpointWater temp
2014-Oct-29 22:17N 27°36' W 083°01'710.1
2014-Oct-29 21:34N 27°36' W 082°53'9 9.3
2014-Oct-29 20:34N 27°37' W 082°42'9 8.9
2014-Oct-29 19:33N 27°41' W 082°34'9 8.8
2014-Oct-29 18:34N 27°48' W 082°28'8 7.7
2014-Oct-29 17:33N 27°56' W 082°27'0 0.0
2014-Oct-29 16:33N 27°56' W 082°27'0 0.0
2014-Oct-29 15:33N 27°56' W 082°27'0 0.3
2014-Oct-29 14:33N 27°56' W 082°27'0 0.0
2014-Oct-29 13:33N 27°56' W 082°27'0 0.0
2014-Oct-29 12:33N 27°56' W 082°27'0 0.0
2014-Oct-29 11:32N 27°56' W 082°27'0 0.0
2014-Oct-29 10:29N 27°56' W 082°27'0 0.0
2014-Oct-29 09:32N 27°56' W 082°27'0 0.0
2014-Oct-29 08:32N 27°56' W 082°27'0 0.0
2014-Oct-29 07:32N 27°56' W 082°27'0 0.0
2014-Oct-29 06:32N 27°56' W 082°27'0 0.0
2014-Oct-29 05:32N 27°56' W 082°27'0 0.0
2014-Oct-29 04:32N 27°56' W 082°27'0 0.0
2014-Oct-29 03:32N 27°56' W 082°27'0 0.0
2014-Oct-29 02:32N 27°56' W 082°27'0 0.0
2014-Oct-29 01:32N 27°56' W 082°27'0 0.0
2014-Oct-29 00:32N 27°56' W 082°27'0 0.0
2014-Oct-28 23:32N 27°56' W 082°27'0 0.0
2014-Oct-28 22:32N 27°56' W 082°27'0 0.0
2014-Oct-28 21:32N 27°56' W 082°27'0 0.0
2014-Oct-28 20:32N 27°56' W 082°27'0 0.0
2014-Oct-28 19:32N 27°56' W 082°27'0 0.0
2014-Oct-28 18:32N 27°56' W 082°27'0 0.0
2014-Oct-28 17:32N 27°56' W 082°27'0 0.3
2014-Oct-28 16:32N 27°56' W 082°27'1 0.5
2014-Oct-28 15:33N 27°57' W 082°27'3 3.0
2014-Oct-28 14:33N 27°54' W 082°26'8 7.7
2014-Oct-28 13:33N 27°47' W 082°31'8 7.7
2014-Oct-28 12:33N 27°40' W 082°35'7 7.2
2014-Oct-28 11:33N 27°37' W 082°42'8 7.7
2014-Oct-28 10:33N 27°36' W 082°51'9 9.1
2014-Oct-28 09:33N 27°35' W 083°01'  
Track history (hours):
 
Tides and Currents Weather Stations Pressure Air Temp Water Temp Dewpoint Dewpoint Depression Visibility Wind Speed Wind Dir Waves Ship Positions

Columbia

Owner: OSG Ship Management Inc., Tampa, FL. More information available from US FCC via Universal Licensing System and Coast Guard Vessel Documentation Center.

Last reported at 2014-Oct-29 22:17 UTC. Time now 2014-Oct-31 13:35 UTC.
Position N 27°36' W 083°01'.

Length 194 m; draft 9.5 m.

Type: Towing. MMSI: 367172440.

Date/timePositionNaut miles runAvg speedWind from/ knotsBaromVisibWave heightAir tempDewpointWater temp
2014-Oct-29 22:17N 27°36' W 083°01'710.1
2014-Oct-29 21:34N 27°36' W 082°53'9 9.3
2014-Oct-29 20:34N 27°37' W 082°42'9 8.9
2014-Oct-29 19:33N 27°41' W 082°34'9 8.8
2014-Oct-29 18:34N 27°48' W 082°28'8 7.7
2014-Oct-29 17:33N 27°56' W 082°27'0 0.0
2014-Oct-29 16:33N 27°56' W 082°27'0 0.0
2014-Oct-29 15:33N 27°56' W 082°27'0 0.3
2014-Oct-29 14:33N 27°56' W 082°27'0 0.0
2014-Oct-29 13:33N 27°56' W 082°27'0 0.0
2014-Oct-29 12:33N 27°56' W 082°27'0 0.0
2014-Oct-29 11:32N 27°56' W 082°27'0 0.0
2014-Oct-29 10:29N 27°56' W 082°27'0 0.0
2014-Oct-29 09:32N 27°56' W 082°27'0 0.0
2014-Oct-29 08:32N 27°56' W 082°27'0 0.0
2014-Oct-29 07:32N 27°56' W 082°27'0 0.0
2014-Oct-29 06:32N 27°56' W 082°27'0 0.0
2014-Oct-29 05:32N 27°56' W 082°27'0 0.0
2014-Oct-29 04:32N 27°56' W 082°27'0 0.0
2014-Oct-29 03:32N 27°56' W 082°27'0 0.0
2014-Oct-29 02:32N 27°56' W 082°27'0 0.0
2014-Oct-29 01:32N 27°56' W 082°27'0 0.0
2014-Oct-29 00:32N 27°56' W 082°27'0 0.0
2014-Oct-28 23:32N 27°56' W 082°27'0 0.0
2014-Oct-28 22:32N 27°56' W 082°27'0 0.0
2014-Oct-28 21:32N 27°56' W 082°27'0 0.0
2014-Oct-28 20:32N 27°56' W 082°27'0 0.0
2014-Oct-28 19:32N 27°56' W 082°27'0 0.0
2014-Oct-28 18:32N 27°56' W 082°27'0 0.0
2014-Oct-28 17:32N 27°56' W 082°27'0 0.3
2014-Oct-28 16:32N 27°56' W 082°27'1 0.5
2014-Oct-28 15:33N 27°57' W 082°27'3 3.0
2014-Oct-28 14:33N 27°54' W 082°26'8 7.7
2014-Oct-28 13:33N 27°47' W 082°31'8 7.7
2014-Oct-28 12:33N 27°40' W 082°35'7 7.2
2014-Oct-28 11:33N 27°37' W 082°42'8 7.7
2014-Oct-28 10:33N 27°36' W 082°51'9 9.1
2014-Oct-28 09:33N 27°35' W 083°01'  

Dump ship's entire track history